sensor_id;sensor_type;location;lat;lon;timestamp;temperature;humidity
74416;SHT31;62850;42.428;25.618;2024-01-15T00:01:59;-0.72;68.35
74416;SHT31;62850;42.428;25.618;2024-01-15T00:04:25;-0.72;68.11
74416;SHT31;62850;42.428;25.618;2024-01-15T00:06:50;-0.69;68.16
74416;SHT31;62850;42.428;25.618;2024-01-15T00:09:16;-0.69;68.11
74416;SHT31;62850;42.428;25.618;2024-01-15T00:11:42;-0.69;68.21
74416;SHT31;62850;42.428;25.618;2024-01-15T00:14:08;-0.63;68.08
74416;SHT31;62850;42.428;25.618;2024-01-15T00:16:34;-0.55;68.01
74416;SHT31;62850;42.428;25.618;2024-01-15T00:18:59;-0.55;67.85
74416;SHT31;62850;42.428;25.618;2024-01-15T00:21:25;-0.60;67.76
74416;SHT31;62850;42.428;25.618;2024-01-15T00:23:50;-0.57;67.81
74416;SHT31;62850;42.428;25.618;2024-01-15T00:26:16;-0.56;67.68
74416;SHT31;62850;42.428;25.618;2024-01-15T00:28:41;-0.56;67.65
74416;SHT31;62850;42.428;25.618;2024-01-15T00:31:07;-0.55;67.30
74416;SHT31;62850;42.428;25.618;2024-01-15T00:33:32;-0.60;67.67
74416;SHT31;62850;42.428;25.618;2024-01-15T00:35:58;-0.64;67.78
74416;SHT31;62850;42.428;25.618;2024-01-15T00:38:23;-0.70;68.13
74416;SHT31;62850;42.428;25.618;2024-01-15T00:40:49;-0.62;68.04
74416;SHT31;62850;42.428;25.618;2024-01-15T00:43:14;-0.69;68.13
74416;SHT31;62850;42.428;25.618;2024-01-15T00:45:40;-0.77;68.20
74416;SHT31;62850;42.428;25.618;2024-01-15T00:48:06;-0.85;68.61
74416;SHT31;62850;42.428;25.618;2024-01-15T00:50:31;-0.85;68.63
74416;SHT31;62850;42.428;25.618;2024-01-15T00:52:57;-0.84;68.72
74416;SHT31;62850;42.428;25.618;2024-01-15T00:55:22;-0.79;68.56
74416;SHT31;62850;42.428;25.618;2024-01-15T00:57:48;-0.81;68.58
74416;SHT31;62850;42.428;25.618;2024-01-15T01:00:13;-0.70;68.42
74416;SHT31;62850;42.428;25.618;2024-01-15T01:02:39;-0.69;68.05
74416;SHT31;62850;42.428;25.618;2024-01-15T01:05:05;-0.76;68.17
74416;SHT31;62850;42.428;25.618;2024-01-15T01:07:30;-0.72;67.48
74416;SHT31;62850;42.428;25.618;2024-01-15T01:09:56;-0.74;67.50
74416;SHT31;62850;42.428;25.618;2024-01-15T01:12:21;-0.74;67.87
74416;SHT31;62850;42.428;25.618;2024-01-15T01:14:47;-0.79;67.80
74416;SHT31;62850;42.428;25.618;2024-01-15T01:17:12;-0.85;68.25
74416;SHT31;62850;42.428;25.618;2024-01-15T01:19:37;-0.95;68.41
74416;SHT31;62850;42.428;25.618;2024-01-15T01:22:03;-0.95;68.36
74416;SHT31;62850;42.428;25.618;2024-01-15T01:24:29;-0.93;68.48
74416;SHT31;62850;42.428;25.618;2024-01-15T01:26:54;-0.95;68.54
74416;SHT31;62850;42.428;25.618;2024-01-15T01:29:19;-1.03;68.62
74416;SHT31;62850;42.428;25.618;2024-01-15T01:31:45;-0.98;68.65
74416;SHT31;62850;42.428;25.618;2024-01-15T01:34:14;-0.95;68.51
74416;SHT31;62850;42.428;25.618;2024-01-15T01:36:40;-1.03;68.62
74416;SHT31;62850;42.428;25.618;2024-01-15T01:39:06;-1.03;68.76
74416;SHT31;62850;42.428;25.618;2024-01-15T01:41:31;-0.97;68.26
74416;SHT31;62850;42.428;25.618;2024-01-15T01:43:57;-1.01;68.26
74416;SHT31;62850;42.428;25.618;2024-01-15T01:46:24;-1.12;68.71
74416;SHT31;62850;42.428;25.618;2024-01-15T01:48:51;-1.14;68.88
74416;SHT31;62850;42.428;25.618;2024-01-15T01:51:17;-1.01;68.46
74416;SHT31;62850;42.428;25.618;2024-01-15T01:53:43;-1.04;68.51
74416;SHT31;62850;42.428;25.618;2024-01-15T01:56:09;-0.98;68.42
74416;SHT31;62850;42.428;25.618;2024-01-15T01:58:35;-0.93;68.46
74416;SHT31;62850;42.428;25.618;2024-01-15T02:01:01;-0.87;68.21
74416;SHT31;62850;42.428;25.618;2024-01-15T02:03:27;-0.98;68.52
74416;SHT31;62850;42.428;25.618;2024-01-15T02:05:53;-1.09;69.04
74416;SHT31;62850;42.428;25.618;2024-01-15T02:08:19;-1.16;69.47
74416;SHT31;62850;42.428;25.618;2024-01-15T02:10:44;-1.21;69.85
74416;SHT31;62850;42.428;25.618;2024-01-15T02:13:10;-1.28;70.43
74416;SHT31;62850;42.428;25.618;2024-01-15T02:15:35;-1.28;70.59
74416;SHT31;62850;42.428;25.618;2024-01-15T02:18:03;-1.27;70.73
74416;SHT31;62850;42.428;25.618;2024-01-15T02:20:29;-1.16;70.41
74416;SHT31;62850;42.428;25.618;2024-01-15T02:23:22;-1.09;70.23
74416;SHT31;62850;42.428;25.618;2024-01-15T02:25:47;-0.98;69.95
74416;SHT31;62850;42.428;25.618;2024-01-15T02:28:15;-0.93;69.58
74416;SHT31;62850;42.428;25.618;2024-01-15T02:30:42;-1.00;69.83
74416;SHT31;62850;42.428;25.618;2024-01-15T02:33:08;-1.09;70.23
74416;SHT31;62850;42.428;25.618;2024-01-15T02:35:34;-1.05;70.33
74416;SHT31;62850;42.428;25.618;2024-01-15T02:38:04;-1.01;70.28
74416;SHT31;62850;42.428;25.618;2024-01-15T02:40:29;-1.03;70.53
74416;SHT31;62850;42.428;25.618;2024-01-15T02:42:55;-0.94;70.31
74416;SHT31;62850;42.428;25.618;2024-01-15T02:45:21;-0.93;70.29
74416;SHT31;62850;42.428;25.618;2024-01-15T02:47:46;-0.91;70.27
74416;SHT31;62850;42.428;25.618;2024-01-15T02:50:12;-0.97;70.39
74416;SHT31;62850;42.428;25.618;2024-01-15T02:52:38;-1.04;70.68
74416;SHT31;62850;42.428;25.618;2024-01-15T02:55:04;-0.98;70.78
74416;SHT31;62850;42.428;25.618;2024-01-15T02:57:29;-0.97;70.71
74416;SHT31;62850;42.428;25.618;2024-01-15T02:59:55;-0.97;70.85
74416;SHT31;62850;42.428;25.618;2024-01-15T03:02:20;-1.05;71.10
74416;SHT31;62850;42.428;25.618;2024-01-15T03:04:46;-1.03;71.24
74416;SHT31;62850;42.428;25.618;2024-01-15T03:07:12;-0.98;71.10
74416;SHT31;62850;42.428;25.618;2024-01-15T03:09:37;-1.03;71.15
74416;SHT31;62850;42.428;25.618;2024-01-15T03:12:03;-1.05;71.48
74416;SHT31;62850;42.428;25.618;2024-01-15T03:14:29;-1.01;71.39
74416;SHT31;62850;42.428;25.618;2024-01-15T03:16:55;-0.90;71.11
74416;SHT31;62850;42.428;25.618;2024-01-15T03:19:20;-0.91;70.87
74416;SHT31;62850;42.428;25.618;2024-01-15T03:21:46;-1.00;71.25
74416;SHT31;62850;42.428;25.618;2024-01-15T03:24:11;-1.01;71.25
74416;SHT31;62850;42.428;25.618;2024-01-15T03:26:37;-1.01;71.47
74416;SHT31;62850;42.428;25.618;2024-01-15T03:29:02;-1.03;71.45
74416;SHT31;62850;42.428;25.618;2024-01-15T03:31:27;-1.08;71.66
74416;SHT31;62850;42.428;25.618;2024-01-15T03:33:53;-1.08;71.79
74416;SHT31;62850;42.428;25.618;2024-01-15T03:36:18;-1.05;71.73
74416;SHT31;62850;42.428;25.618;2024-01-15T03:38:44;-1.03;71.80
74416;SHT31;62850;42.428;25.618;2024-01-15T03:41:09;-1.11;71.90
74416;SHT31;62850;42.428;25.618;2024-01-15T03:43:35;-1.15;72.25
74416;SHT31;62850;42.428;25.618;2024-01-15T03:46:00;-1.15;72.13
74416;SHT31;62850;42.428;25.618;2024-01-15T03:48:27;-1.14;72.16
74416;SHT31;62850;42.428;25.618;2024-01-15T03:50:53;-1.11;72.01
74416;SHT31;62850;42.428;25.618;2024-01-15T03:53:18;-1.08;72.09
74416;SHT31;62850;42.428;25.618;2024-01-15T03:55:44;-1.16;72.27
74416;SHT31;62850;42.428;25.618;2024-01-15T03:58:09;-1.14;72.33
74416;SHT31;62850;42.428;25.618;2024-01-15T04:00:35;-1.09;72.15
74416;SHT31;62850;42.428;25.618;2024-01-15T04:03:00;-1.21;72.09
74416;SHT31;62850;42.428;25.618;2024-01-15T04:05:26;-1.25;72.21
74416;SHT31;62850;42.428;25.618;2024-01-15T04:07:51;-1.24;72.40
74416;SHT31;62850;42.428;25.618;2024-01-15T04:10:17;-1.21;72.38
74416;SHT31;62850;42.428;25.618;2024-01-15T04:12:42;-1.21;72.41
74416;SHT31;62850;42.428;25.618;2024-01-15T04:15:08;-1.30;72.73
74416;SHT31;62850;42.428;25.618;2024-01-15T04:17:33;-1.35;73.10
74416;SHT31;62850;42.428;25.618;2024-01-15T04:19:59;-1.42;73.10
74416;SHT31;62850;42.428;25.618;2024-01-15T04:22:25;-1.44;73.19
74416;SHT31;62850;42.428;25.618;2024-01-15T04:24:50;-1.51;73.28
74416;SHT31;62850;42.428;25.618;2024-01-15T04:27:16;-1.63;73.65
74416;SHT31;62850;42.428;25.618;2024-01-15T04:29:41;-1.59;73.78
74416;SHT31;62850;42.428;25.618;2024-01-15T04:32:07;-1.56;73.53
74416;SHT31;62850;42.428;25.618;2024-01-15T04:34:32;-1.59;73.46
74416;SHT31;62850;42.428;25.618;2024-01-15T04:36:58;-1.56;73.19
74416;SHT31;62850;42.428;25.618;2024-01-15T04:39:23;-1.51;73.13
74416;SHT31;62850;42.428;25.618;2024-01-15T04:41:49;-1.46;72.98
74416;SHT31;62850;42.428;25.618;2024-01-15T04:44:15;-1.56;73.47
74416;SHT31;62850;42.428;25.618;2024-01-15T04:46:40;-1.56;73.28
74416;SHT31;62850;42.428;25.618;2024-01-15T04:49:07;-1.46;73.04
74416;SHT31;62850;42.428;25.618;2024-01-15T04:51:32;-1.34;72.65
74416;SHT31;62850;42.428;25.618;2024-01-15T04:53:57;-1.28;72.34
74416;SHT31;62850;42.428;25.618;2024-01-15T04:56:23;-1.32;72.22
74416;SHT31;62850;42.428;25.618;2024-01-15T04:58:48;-1.41;72.49
74416;SHT31;62850;42.428;25.618;2024-01-15T05:01:15;-1.38;72.51
74416;SHT31;62850;42.428;25.618;2024-01-15T05:03:41;-1.30;72.17
74416;SHT31;62850;42.428;25.618;2024-01-15T05:06:07;-1.27;71.92
74416;SHT31;62850;42.428;25.618;2024-01-15T05:08:32;-1.31;72.05
74416;SHT31;62850;42.428;25.618;2024-01-15T05:10:57;-1.36;71.90
74416;SHT31;62850;42.428;25.618;2024-01-15T05:13:23;-1.45;72.14
74416;SHT31;62850;42.428;25.618;2024-01-15T05:15:48;-1.55;72.59
74416;SHT31;62850;42.428;25.618;2024-01-15T05:18:14;-1.55;72.62
74416;SHT31;62850;42.428;25.618;2024-01-15T05:20:39;-1.65;73.00
74416;SHT31;62850;42.428;25.618;2024-01-15T05:23:05;-1.58;73.31
74416;SHT31;62850;42.428;25.618;2024-01-15T05:25:30;-1.53;72.90
74416;SHT31;62850;42.428;25.618;2024-01-15T05:27:56;-1.51;72.79
74416;SHT31;62850;42.428;25.618;2024-01-15T05:30:21;-1.46;72.71
74416;SHT31;62850;42.428;25.618;2024-01-15T05:32:46;-1.44;72.76
74416;SHT31;62850;42.428;25.618;2024-01-15T05:35:12;-1.36;72.49
74416;SHT31;62850;42.428;25.618;2024-01-15T05:37:45;-1.56;72.92
74416;SHT31;62850;42.428;25.618;2024-01-15T05:40:12;-1.56;73.01
74416;SHT31;62850;42.428;25.618;2024-01-15T05:42:38;-1.55;73.09
74416;SHT31;62850;42.428;25.618;2024-01-15T05:45:04;-1.63;73.22
74416;SHT31;62850;42.428;25.618;2024-01-15T05:47:30;-1.80;73.83
74416;SHT31;62850;42.428;25.618;2024-01-15T05:49:57;-1.72;73.84
74416;SHT31;62850;42.428;25.618;2024-01-15T05:52:23;-1.67;73.68
74416;SHT31;62850;42.428;25.618;2024-01-15T05:54:49;-1.72;73.82
74416;SHT31;62850;42.428;25.618;2024-01-15T05:57:15;-1.69;73.71
74416;SHT31;62850;42.428;25.618;2024-01-15T05:59:41;-1.70;73.66
74416;SHT31;62850;42.428;25.618;2024-01-15T06:02:06;-1.59;73.56
74416;SHT31;62850;42.428;25.618;2024-01-15T06:04:32;-1.55;73.05
74416;SHT31;62850;42.428;25.618;2024-01-15T06:06:57;-1.52;72.76
74416;SHT31;62850;42.428;25.618;2024-01-15T06:09:23;-1.62;73.26
74416;SHT31;62850;42.428;25.618;2024-01-15T06:11:48;-1.66;73.43
74416;SHT31;62850;42.428;25.618;2024-01-15T06:14:14;-1.51;73.21
74416;SHT31;62850;42.428;25.618;2024-01-15T06:16:39;-1.39;72.72
74416;SHT31;62850;42.428;25.618;2024-01-15T06:19:04;-1.28;72.53
74416;SHT31;62850;42.428;25.618;2024-01-15T06:21:30;-1.30;72.52
74416;SHT31;62850;42.428;25.618;2024-01-15T06:23:55;-1.49;73.17
74416;SHT31;62850;42.428;25.618;2024-01-15T06:26:24;-1.42;73.21
74416;SHT31;62850;42.428;25.618;2024-01-15T06:28:50;-1.39;72.90
74416;SHT31;62850;42.428;25.618;2024-01-15T06:31:15;-1.34;72.97
74416;SHT31;62850;42.428;25.618;2024-01-15T06:33:41;-1.31;72.93
74416;SHT31;62850;42.428;25.618;2024-01-15T06:36:07;-1.27;72.91
74416;SHT31;62850;42.428;25.618;2024-01-15T06:38:33;-1.16;72.93
74416;SHT31;62850;42.428;25.618;2024-01-15T06:40:58;-1.12;72.74
74416;SHT31;62850;42.428;25.618;2024-01-15T06:43:23;-1.12;72.63
74416;SHT31;62850;42.428;25.618;2024-01-15T06:45:49;-1.07;72.70
74416;SHT31;62850;42.428;25.618;2024-01-15T06:48:15;-1.00;72.36
74416;SHT31;62850;42.428;25.618;2024-01-15T06:50:44;-0.88;71.83
74416;SHT31;62850;42.428;25.618;2024-01-15T06:53:10;-0.74;71.02
74416;SHT31;62850;42.428;25.618;2024-01-15T06:55:36;-0.59;70.85
74416;SHT31;62850;42.428;25.618;2024-01-15T06:58:02;-0.46;70.34
74416;SHT31;62850;42.428;25.618;2024-01-15T07:00:27;-0.45;69.99
74416;SHT31;62850;42.428;25.618;2024-01-15T07:02:53;-0.39;70.25
74416;SHT31;62850;42.428;25.618;2024-01-15T07:05:20;-0.29;69.38
74416;SHT31;62850;42.428;25.618;2024-01-15T07:07:45;-0.19;68.91
74416;SHT31;62850;42.428;25.618;2024-01-15T07:10:11;-0.12;68.98
74416;SHT31;62850;42.428;25.618;2024-01-15T07:12:36;-0.06;68.98
74416;SHT31;62850;42.428;25.618;2024-01-15T07:15:02;0.01;68.78
74416;SHT31;62850;42.428;25.618;2024-01-15T07:17:29;0.02;68.08
74416;SHT31;62850;42.428;25.618;2024-01-15T07:19:55;0.15;67.29
74416;SHT31;62850;42.428;25.618;2024-01-15T07:22:20;0.19;67.01
74416;SHT31;62850;42.428;25.618;2024-01-15T07:24:46;0.22;66.07
74416;SHT31;62850;42.428;25.618;2024-01-15T07:27:11;0.30;65.75
74416;SHT31;62850;42.428;25.618;2024-01-15T07:29:37;0.33;65.53
74416;SHT31;62850;42.428;25.618;2024-01-15T07:32:03;0.40;65.30
74416;SHT31;62850;42.428;25.618;2024-01-15T07:34:29;0.43;64.91
74416;SHT31;62850;42.428;25.618;2024-01-15T07:36:55;0.49;65.19
74416;SHT31;62850;42.428;25.618;2024-01-15T07:39:20;0.54;64.34
74416;SHT31;62850;42.428;25.618;2024-01-15T07:41:47;0.54;64.17
74416;SHT31;62850;42.428;25.618;2024-01-15T07:44:13;0.64;64.42
74416;SHT31;62850;42.428;25.618;2024-01-15T07:46:38;0.73;64.16
74416;SHT31;62850;42.428;25.618;2024-01-15T07:49:04;0.80;64.03
74416;SHT31;62850;42.428;25.618;2024-01-15T07:51:30;0.95;63.23
74416;SHT31;62850;42.428;25.618;2024-01-15T07:53:56;1.05;62.95
74416;SHT31;62850;42.428;25.618;2024-01-15T07:56:21;1.19;62.55
74416;SHT31;62850;42.428;25.618;2024-01-15T07:58:47;1.21;62.24
74416;SHT31;62850;42.428;25.618;2024-01-15T08:01:12;1.18;61.17
74416;SHT31;62850;42.428;25.618;2024-01-15T08:03:38;1.29;61.29
74416;SHT31;62850;42.428;25.618;2024-01-15T08:06:05;1.42;61.00
74416;SHT31;62850;42.428;25.618;2024-01-15T08:08:31;1.43;60.85
74416;SHT31;62850;42.428;25.618;2024-01-15T08:10:56;1.57;61.12
74416;SHT31;62850;42.428;25.618;2024-01-15T08:13:22;1.62;60.82
74416;SHT31;62850;42.428;25.618;2024-01-15T08:15:47;1.68;60.49
74416;SHT31;62850;42.428;25.618;2024-01-15T08:18:13;1.70;60.79
74416;SHT31;62850;42.428;25.618;2024-01-15T08:20:39;1.67;61.03
74416;SHT31;62850;42.428;25.618;2024-01-15T08:23:05;1.64;61.06
74416;SHT31;62850;42.428;25.618;2024-01-15T08:25:30;1.54;60.93
74416;SHT31;62850;42.428;25.618;2024-01-15T08:27:56;1.59;60.74
74416;SHT31;62850;42.428;25.618;2024-01-15T08:30:23;1.60;61.10
74416;SHT31;62850;42.428;25.618;2024-01-15T08:32:55;1.62;61.23
74416;SHT31;62850;42.428;25.618;2024-01-15T08:35:20;1.68;61.25
74416;SHT31;62850;42.428;25.618;2024-01-15T08:37:50;1.87;61.13
74416;SHT31;62850;42.428;25.618;2024-01-15T08:40:16;1.84;60.55
74416;SHT31;62850;42.428;25.618;2024-01-15T08:42:42;1.84;60.55
74416;SHT31;62850;42.428;25.618;2024-01-15T08:45:09;1.98;59.96
74416;SHT31;62850;42.428;25.618;2024-01-15T08:47:34;2.11;59.61
74416;SHT31;62850;42.428;25.618;2024-01-15T08:50:00;2.22;59.40
74416;SHT31;62850;42.428;25.618;2024-01-15T08:52:26;2.24;59.00
74416;SHT31;62850;42.428;25.618;2024-01-15T08:54:51;2.29;59.07
74416;SHT31;62850;42.428;25.618;2024-01-15T08:57:17;2.35;58.70
74416;SHT31;62850;42.428;25.618;2024-01-15T08:59:42;2.45;58.41
74416;SHT31;62850;42.428;25.618;2024-01-15T09:02:08;2.42;58.66
74416;SHT31;62850;42.428;25.618;2024-01-15T09:04:33;2.38;58.79
74416;SHT31;62850;42.428;25.618;2024-01-15T09:06:59;2.50;58.18
74416;SHT31;62850;42.428;25.618;2024-01-15T09:09:24;2.63;57.96
74416;SHT31;62850;42.428;25.618;2024-01-15T09:11:51;2.71;58.29
74416;SHT31;62850;42.428;25.618;2024-01-15T09:14:16;2.86;57.89
74416;SHT31;62850;42.428;25.618;2024-01-15T09:16:42;2.97;57.56
74416;SHT31;62850;42.428;25.618;2024-01-15T09:19:07;3.08;57.20
74416;SHT31;62850;42.428;25.618;2024-01-15T09:21:33;3.17;56.92
74416;SHT31;62850;42.428;25.618;2024-01-15T09:23:58;3.27;56.96
74416;SHT31;62850;42.428;25.618;2024-01-15T09:26:24;3.35;57.21
74416;SHT31;62850;42.428;25.618;2024-01-15T09:28:49;3.41;57.31
74416;SHT31;62850;42.428;25.618;2024-01-15T09:31:15;3.42;57.47
74416;SHT31;62850;42.428;25.618;2024-01-15T09:36:10;3.55;57.91
74416;SHT31;62850;42.428;25.618;2024-01-15T09:38:35;3.59;58.07
74416;SHT31;62850;42.428;25.618;2024-01-15T09:41:01;3.66;57.78
74416;SHT31;62850;42.428;25.618;2024-01-15T09:43:27;3.62;58.06
74416;SHT31;62850;42.428;25.618;2024-01-15T09:45:53;3.61;58.30
74416;SHT31;62850;42.428;25.618;2024-01-15T09:48:19;3.73;58.41
74416;SHT31;62850;42.428;25.618;2024-01-15T09:50:45;3.78;58.41
74416;SHT31;62850;42.428;25.618;2024-01-15T09:53:11;3.82;58.48
74416;SHT31;62850;42.428;25.618;2024-01-15T09:55:38;3.83;58.70
74416;SHT31;62850;42.428;25.618;2024-01-15T09:58:04;3.87;58.43
74416;SHT31;62850;42.428;25.618;2024-01-15T10:00:29;3.97;58.24
74416;SHT31;62850;42.428;25.618;2024-01-15T10:02:58;3.99;58.31
74416;SHT31;62850;42.428;25.618;2024-01-15T10:05:26;4.10;58.08
74416;SHT31;62850;42.428;25.618;2024-01-15T10:07:53;4.18;57.85
74416;SHT31;62850;42.428;25.618;2024-01-15T10:10:19;4.20;57.90
74416;SHT31;62850;42.428;25.618;2024-01-15T10:12:47;4.29;57.56
74416;SHT31;62850;42.428;25.618;2024-01-15T10:15:13;4.37;57.90
74416;SHT31;62850;42.428;25.618;2024-01-15T10:17:39;4.44;57.71
74416;SHT31;62850;42.428;25.618;2024-01-15T10:20:11;4.41;57.92
74416;SHT31;62850;42.428;25.618;2024-01-15T10:22:44;4.47;57.53
74416;SHT31;62850;42.428;25.618;2024-01-15T10:25:12;4.44;58.49
74416;SHT31;62850;42.428;25.618;2024-01-15T10:27:39;4.47;58.13
74416;SHT31;62850;42.428;25.618;2024-01-15T10:30:05;4.43;58.62
74416;SHT31;62850;42.428;25.618;2024-01-15T10:32:31;4.57;58.50
74416;SHT31;62850;42.428;25.618;2024-01-15T10:34:57;4.60;58.75
74416;SHT31;62850;42.428;25.618;2024-01-15T10:37:24;4.58;58.82
74416;SHT31;62850;42.428;25.618;2024-01-15T10:39:49;4.64;59.24
74416;SHT31;62850;42.428;25.618;2024-01-15T10:42:15;4.76;59.54
74416;SHT31;62850;42.428;25.618;2024-01-15T10:44:43;4.73;59.69
74416;SHT31;62850;42.428;25.618;2024-01-15T10:47:08;4.68;59.02
74416;SHT31;62850;42.428;25.618;2024-01-15T10:49:34;4.75;58.27
74416;SHT31;62850;42.428;25.618;2024-01-15T10:52:01;4.65;58.22
74416;SHT31;62850;42.428;25.618;2024-01-15T10:54:27;4.60;58.52
74416;SHT31;62850;42.428;25.618;2024-01-15T10:56:53;4.54;58.52
74416;SHT31;62850;42.428;25.618;2024-01-15T10:59:20;4.47;59.64
74416;SHT31;62850;42.428;25.618;2024-01-15T11:01:47;4.48;58.67
74416;SHT31;62850;42.428;25.618;2024-01-15T11:04:13;4.51;58.49
74416;SHT31;62850;42.428;25.618;2024-01-15T11:06:45;4.51;58.41
74416;SHT31;62850;42.428;25.618;2024-01-15T11:09:12;4.48;58.43
74416;SHT31;62850;42.428;25.618;2024-01-15T11:11:43;4.43;58.86
74416;SHT31;62850;42.428;25.618;2024-01-15T11:14:08;4.55;58.55
74416;SHT31;62850;42.428;25.618;2024-01-15T11:16:53;4.67;58.09
74416;SHT31;62850;42.428;25.618;2024-01-15T11:19:19;4.71;58.06
74416;SHT31;62850;42.428;25.618;2024-01-15T11:21:44;4.81;57.97
74416;SHT31;62850;42.428;25.618;2024-01-15T11:24:10;4.85;57.21
74416;SHT31;62850;42.428;25.618;2024-01-15T11:29:28;4.88;56.43
74416;SHT31;62850;42.428;25.618;2024-01-15T11:31:58;4.96;55.98
74416;SHT31;62850;42.428;25.618;2024-01-15T11:37:22;5.08;55.42
74416;SHT31;62850;42.428;25.618;2024-01-15T11:39:51;5.13;55.41
74416;SHT31;62850;42.428;25.618;2024-01-15T11:42:16;5.15;55.28
74416;SHT31;62850;42.428;25.618;2024-01-15T11:44:44;5.15;56.39
74416;SHT31;62850;42.428;25.618;2024-01-15T11:47:10;5.12;56.06
74416;SHT31;62850;42.428;25.618;2024-01-15T11:50:04;5.03;57.21
74416;SHT31;62850;42.428;25.618;2024-01-15T11:52:37;5.09;57.41
74416;SHT31;62850;42.428;25.618;2024-01-15T11:57:49;5.10;58.09
74416;SHT31;62850;42.428;25.618;2024-01-15T12:00:15;5.13;58.42
74416;SHT31;62850;42.428;25.618;2024-01-15T12:02:42;5.16;58.61
74416;SHT31;62850;42.428;25.618;2024-01-15T12:05:13;5.12;59.01
74416;SHT31;62850;42.428;25.618;2024-01-15T12:07:43;5.09;59.01
74416;SHT31;62850;42.428;25.618;2024-01-15T12:10:12;5.08;59.25
74416;SHT31;62850;42.428;25.618;2024-01-15T12:12:57;5.06;59.54
74416;SHT31;62850;42.428;25.618;2024-01-15T12:15:23;5.03;59.25
74416;SHT31;62850;42.428;25.618;2024-01-15T12:17:49;5.12;59.04
74416;SHT31;62850;42.428;25.618;2024-01-15T12:20:15;5.15;60.34
74416;SHT31;62850;42.428;25.618;2024-01-15T12:22:41;5.20;59.01
74416;SHT31;62850;42.428;25.618;2024-01-15T12:25:07;5.23;59.22
74416;SHT31;62850;42.428;25.618;2024-01-15T12:27:32;5.27;58.77
74416;SHT31;62850;42.428;25.618;2024-01-15T12:29:58;5.30;58.61
74416;SHT31;62850;42.428;25.618;2024-01-15T12:32:24;5.37;58.50
74416;SHT31;62850;42.428;25.618;2024-01-15T12:34:50;5.47;57.82
74416;SHT31;62850;42.428;25.618;2024-01-15T12:37:19;5.44;57.38
74416;SHT31;62850;42.428;25.618;2024-01-15T12:39:45;5.43;57.29
74416;SHT31;62850;42.428;25.618;2024-01-15T12:42:11;5.48;57.52
74416;SHT31;62850;42.428;25.618;2024-01-15T12:44:37;5.50;56.73
74416;SHT31;62850;42.428;25.618;2024-01-15T12:47:06;5.50;56.72
74416;SHT31;62850;42.428;25.618;2024-01-15T12:49:32;5.51;57.03
74416;SHT31;62850;42.428;25.618;2024-01-15T12:51:59;5.53;57.12
74416;SHT31;62850;42.428;25.618;2024-01-15T12:54:24;5.60;57.14
74416;SHT31;62850;42.428;25.618;2024-01-15T12:56:50;5.57;57.51
74416;SHT31;62850;42.428;25.618;2024-01-15T12:59:16;5.60;57.64
74416;SHT31;62850;42.428;25.618;2024-01-15T13:01:42;5.65;57.20
74416;SHT31;62850;42.428;25.618;2024-01-15T13:04:08;5.68;57.16
74416;SHT31;62850;42.428;25.618;2024-01-15T13:06:34;5.72;56.86
74416;SHT31;62850;42.428;25.618;2024-01-15T13:09:00;5.72;57.02
74416;SHT31;62850;42.428;25.618;2024-01-15T13:11:27;5.62;57.31
74416;SHT31;62850;42.428;25.618;2024-01-15T13:13:52;5.68;57.35
74416;SHT31;62850;42.428;25.618;2024-01-15T13:16:18;5.65;57.44
74416;SHT31;62850;42.428;25.618;2024-01-15T13:18:46;5.61;57.33
74416;SHT31;62850;42.428;25.618;2024-01-15T13:21:11;5.60;57.27
74416;SHT31;62850;42.428;25.618;2024-01-15T13:23:38;5.58;57.31
74416;SHT31;62850;42.428;25.618;2024-01-15T13:26:04;5.62;57.14
74416;SHT31;62850;42.428;25.618;2024-01-15T13:28:30;5.60;57.22
74416;SHT31;62850;42.428;25.618;2024-01-15T13:30:55;5.62;56.74
74416;SHT31;62850;42.428;25.618;2024-01-15T13:33:21;5.65;57.00
74416;SHT31;62850;42.428;25.618;2024-01-15T13:35:47;5.61;56.77
74416;SHT31;62850;42.428;25.618;2024-01-15T13:38:15;5.68;56.64
74416;SHT31;62850;42.428;25.618;2024-01-15T13:40:40;5.67;56.73
74416;SHT31;62850;42.428;25.618;2024-01-15T13:43:06;5.70;57.49
74416;SHT31;62850;42.428;25.618;2024-01-15T13:45:34;5.65;57.34
74416;SHT31;62850;42.428;25.618;2024-01-15T13:48:00;5.55;57.62
74416;SHT31;62850;42.428;25.618;2024-01-15T13:50:25;5.50;57.96
74416;SHT31;62850;42.428;25.618;2024-01-15T13:52:51;5.51;57.99
74416;SHT31;62850;42.428;25.618;2024-01-15T13:55:16;5.47;58.50
74416;SHT31;62850;42.428;25.618;2024-01-15T13:57:42;5.53;58.48
74416;SHT31;62850;42.428;25.618;2024-01-15T14:00:07;5.53;58.17
74416;SHT31;62850;42.428;25.618;2024-01-15T14:02:37;5.57;57.97
74416;SHT31;62850;42.428;25.618;2024-01-15T14:05:02;5.60;57.98
74416;SHT31;62850;42.428;25.618;2024-01-15T14:07:28;5.53;58.31
74416;SHT31;62850;42.428;25.618;2024-01-15T14:09:53;5.53;58.37
74416;SHT31;62850;42.428;25.618;2024-01-15T14:12:18;5.47;58.79
74416;SHT31;62850;42.428;25.618;2024-01-15T14:14:44;5.50;58.59
74416;SHT31;62850;42.428;25.618;2024-01-15T14:17:09;5.48;58.43
74416;SHT31;62850;42.428;25.618;2024-01-15T14:19:35;5.51;58.39
74416;SHT31;62850;42.428;25.618;2024-01-15T14:22:01;5.41;58.91
74416;SHT31;62850;42.428;25.618;2024-01-15T14:24:26;5.32;59.55
74416;SHT31;62850;42.428;25.618;2024-01-15T14:26:52;5.36;59.59
74416;SHT31;62850;42.428;25.618;2024-01-15T14:29:17;5.36;59.80
74416;SHT31;62850;42.428;25.618;2024-01-15T14:31:45;5.36;60.02
74416;SHT31;62850;42.428;25.618;2024-01-15T14:34:11;5.36;60.18
74416;SHT31;62850;42.428;25.618;2024-01-15T14:36:37;5.34;60.26
74416;SHT31;62850;42.428;25.618;2024-01-15T14:39:02;5.32;60.53
74416;SHT31;62850;42.428;25.618;2024-01-15T14:41:28;5.24;60.69
74416;SHT31;62850;42.428;25.618;2024-01-15T14:43:53;5.24;60.89
74416;SHT31;62850;42.428;25.618;2024-01-15T14:46:19;5.27;60.82
74416;SHT31;62850;42.428;25.618;2024-01-15T14:48:46;5.10;61.15
74416;SHT31;62850;42.428;25.618;2024-01-15T14:51:11;5.03;61.41
74416;SHT31;62850;42.428;25.618;2024-01-15T14:53:37;4.99;61.85
74416;SHT31;62850;42.428;25.618;2024-01-15T14:56:02;4.95;62.06
74416;SHT31;62850;42.428;25.618;2024-01-15T14:58:28;4.93;61.93
74416;SHT31;62850;42.428;25.618;2024-01-15T15:00:53;4.92;62.13
74416;SHT31;62850;42.428;25.618;2024-01-15T15:03:20;4.93;62.72
74416;SHT31;62850;42.428;25.618;2024-01-15T15:05:46;4.79;62.75
74416;SHT31;62850;42.428;25.618;2024-01-15T15:08:11;4.76;62.74
74416;SHT31;62850;42.428;25.618;2024-01-15T15:10:38;4.76;62.74
74416;SHT31;62850;42.428;25.618;2024-01-15T15:13:06;4.48;63.07
74416;SHT31;62850;42.428;25.618;2024-01-15T15:15:31;4.20;63.52
74416;SHT31;62850;42.428;25.618;2024-01-15T15:17:57;4.14;63.79
74416;SHT31;62850;42.428;25.618;2024-01-15T15:20:22;4.16;63.82
74416;SHT31;62850;42.428;25.618;2024-01-15T15:22:47;4.10;63.98
74416;SHT31;62850;42.428;25.618;2024-01-15T15:25:13;4.10;64.12
74416;SHT31;62850;42.428;25.618;2024-01-15T15:27:38;4.10;64.62
74416;SHT31;62850;42.428;25.618;2024-01-15T15:30:06;4.10;65.12